Time;durP1;ratioP1;P1;durP2;ratioP2;P2;SDS_P1;SDS_P2;PMS_P1;PMS_P2;Temp;Humidity;BMP_temperature;BMP_pressure;BME280_temperature;BME280_humidity;BME280_pressure;Samples;Min_cycle;Max_cycle;Signal;HPM_P1;HPM_P2
2023/06/15 00:00:44;;;;;;;0.88;0.88;;;;;;;14.90;100.00;99784.63;4984347;28;20478;-91
2023/06/15 00:03:10;;;;;;;0.43;0.43;;;;;;;14.94;100.00;99779.63;5002305;28;20482;-91
2023/06/15 00:05:36;;;;;;;0.00;0.00;;;;;;;14.87;100.00;99774.41;4994567;28;20034;-91
2023/06/15 00:08:01;;;;;;;0.30;0.25;;;;;;;14.85;100.00;99776.09;4989857;28;20058;-91
2023/06/15 00:10:27;;;;;;;0.15;0.15;;;;;;;14.90;100.00;99783.84;4996609;28;20065;-90
2023/06/15 00:12:52;;;;;;;0.22;0.22;;;;;;;14.83;100.00;99784.19;5001073;28;20490;-92
2023/06/15 00:15:18;;;;;;;0.68;0.57;;;;;;;14.72;100.00;99759.56;5003283;28;20033;-90
2023/06/15 00:17:44;;;;;;;0.35;0.35;;;;;;;14.82;100.00;99789.00;4999023;28;20432;-91
2023/06/15 00:20:12;;;;;;;0.35;0.35;;;;;;;14.69;100.00;99780.03;4999236;28;20030;-92
2023/06/15 00:22:40;;;;;;;0.30;0.30;;;;;;;14.83;100.00;99801.72;4999705;28;20053;-91
2023/06/15 00:25:07;;;;;;;0.50;0.50;;;;;;;14.71;100.00;99782.38;5004939;28;20040;-91
2023/06/15 00:27:35;;;;;;;1.17;1.05;;;;;;;14.75;100.00;99799.72;4997978;28;20053;-89
2023/06/15 00:30:01;;;;;;;0.65;0.57;;;;;;;14.71;100.00;99799.91;5002586;28;20106;-91
2023/06/15 00:32:27;;;;;;;0.43;0.43;;;;;;;14.54;100.00;99795.91;4992599;28;20042;-90
2023/06/15 00:34:53;;;;;;;0.55;0.55;;;;;;;14.36;100.00;99807.13;4987992;28;20045;-90
2023/06/15 00:37:18;;;;;;;0.32;0.32;;;;;;;14.29;100.00;99808.19;4996484;28;20042;-90
2023/06/15 00:39:44;;;;;;;0.20;0.20;;;;;;;14.13;100.00;99783.44;5023139;28;20030;-90
2023/06/15 00:42:10;;;;;;;0.52;0.52;;;;;;;14.16;100.00;99799.22;4990843;28;20041;-90
2023/06/15 00:44:35;;;;;;;0.00;0.00;;;;;;;13.96;100.00;99773.84;4999038;28;20041;-89
2023/06/15 00:47:01;;;;;;;0.52;0.52;;;;;;;13.98;100.00;99793.69;4998318;28;20033;-90
2023/06/15 00:49:27;;;;;;;0.20;0.20;;;;;;;13.97;100.00;99786.53;5014451;28;20029;-90
2023/06/15 00:51:53;;;;;;;0.65;0.60;;;;;;;13.85;100.00;99801.41;4976419;28;20053;-90
2023/06/15 00:54:21;;;;;;;0.17;0.08;;;;;;;13.81;100.00;99796.00;5004830;28;20041;-90
2023/06/15 00:56:48;;;;;;;0.17;0.17;;;;;;;13.73;100.00;99775.25;4984031;28;20101;-91
2023/06/15 00:59:14;;;;;;;0.95;0.82;;;;;;;13.89;100.00;99791.66;5005031;28;20564;-90
2023/06/15 01:01:41;;;;;;;0.52;0.52;;;;;;;14.01;100.00;99801.88;5293645;22;20481;-95
2023/06/15 01:04:08;;;;;;;0.43;0.43;;;;;;;14.01;100.00;99815.03;4977833;23;20157;-91
2023/06/15 01:06:41;;;;;;;0.20;0.20;;;;;;;14.01;100.00;99799.09;4947955;28;20122;-89
2023/06/15 01:09:08;;;;;;;1.33;0.68;;;;;;;13.98;100.00;99793.69;4957138;28;20458;-90
2023/06/15 01:11:34;;;;;;;0.00;0.00;;;;;;;14.06;100.00;99800.50;4977188;28;20157;-91
2023/06/15 01:14:01;;;;;;;0.38;0.38;;;;;;;14.02;100.00;99811.03;4957540;28;20121;-91
2023/06/15 01:16:32;;;;;;;0.50;0.50;;;;;;;14.03;100.00;99802.19;4958330;28;20085;-90
2023/06/15 01:19:01;;;;;;;0.60;0.43;;;;;;;13.98;100.00;99788.88;4956441;28;20039;-90
2023/06/15 01:21:28;;;;;;;0.22;0.22;;;;;;;13.96;100.00;99791.34;4986795;28;20035;-89
2023/06/15 01:24:23;;;;;;;0.40;0.30;;;;;;;14.01;100.00;99810.25;4980524;28;20031;-90
2023/06/15 01:26:52;;;;;;;0.60;0.60;;;;;;;13.83;100.00;99787.94;4957179;28;20034;-90
2023/06/15 01:29:20;;;;;;;0.38;0.38;;;;;;;13.87;100.00;99810.84;4967127;28;20499;-91
2023/06/15 01:31:46;;;;;;;0.43;0.32;;;;;;;13.74;100.00;99795.53;4969271;28;20042;-90
2023/06/15 01:34:12;;;;;;;0.82;0.82;;;;;;;13.41;100.00;99759.13;4974222;28;20038;-90
2023/06/15 01:36:40;;;;;;;0.30;0.30;;;;;;;13.74;100.00;99807.47;4960610;28;20037;-90
2023/06/15 01:39:07;;;;;;;0.47;0.47;;;;;;;13.79;100.00;99808.88;4970081;28;20037;-89
2023/06/15 01:41:34;;;;;;;0.10;0.10;;;;;;;13.50;100.00;99759.16;4968224;28;20034;-90
2023/06/15 01:44:02;;;;;;;0.52;0.52;;;;;;;13.57;100.00;99775.56;4958693;28;20031;-90
2023/06/15 01:46:28;;;;;;;0.70;0.45;;;;;;;13.57;100.00;99780.34;4966842;28;20108;-90
2023/06/15 01:49:03;;;;;;;0.28;0.28;;;;;;;13.65;100.00;99799.09;4982791;28;20166;-89
2023/06/15 01:51:30;;;;;;;0.25;0.25;;;;;;;13.65;100.00;99809.47;4966453;28;20026;-90
2023/06/15 01:53:55;;;;;;;0.60;0.60;;;;;;;13.52;100.00;99801.25;4976427;28;20026;-90
2023/06/15 01:56:21;;;;;;;0.38;0.32;;;;;;;13.53;100.00;99802.81;4977890;28;20395;-90
2023/06/15 01:58:47;;;;;;;0.70;0.70;;;;;;;13.52;100.00;99802.03;4958861;28;20058;-90
2023/06/15 02:01:12;;;;;;;0.88;0.88;;;;;;;13.48;100.00;99801.41;4974358;28;20510;-90
2023/06/15 02:03:40;;;;;;;0.43;0.43;;;;;;;13.50;100.00;99787.00;4981475;28;20108;-90
2023/06/15 02:06:10;;;;;;;0.10;0.10;;;;;;;13.46;100.00;99789.19;4964553;28;20039;-90
2023/06/15 02:08:36;;;;;;;0.30;0.30;;;;;;;13.53;100.00;99797.22;4979621;28;20084;-90
2023/06/15 02:11:02;;;;;;;0.75;0.70;;;;;;;13.50;100.00;99789.81;4989575;28;20059;-90
2023/06/15 02:13:28;;;;;;;0.90;0.90;;;;;;;13.31;100.00;99747.19;4973575;28;20117;-90
2023/06/15 02:15:54;;;;;;;0.47;0.43;;;;;;;13.32;100.00;99748.75;4961714;28;20053;-90
2023/06/15 02:18:21;;;;;;;0.57;0.43;;;;;;;13.37;100.00;99750.94;4937692;28;20069;-89
2023/06/15 02:20:46;;;;;;;3.47;1.00;;;;;;;13.56;100.00;99787.94;4975558;28;20808;-89
2023/06/15 02:23:12;;;;;;;1.38;1.08;;;;;;;13.35;100.00;99764.53;4980271;28;20117;-90
2023/06/15 02:25:38;;;;;;;0.63;0.63;;;;;;;13.49;100.00;99799.41;4987815;28;20034;-89
2023/06/15 02:28:04;;;;;;;0.98;0.63;;;;;;;13.43;100.00;99799.22;4978116;28;20455;-89
2023/06/15 02:30:31;;;;;;;0.38;0.38;;;;;;;12.99;100.00;99759.66;4968783;28;20037;-90
2023/06/15 02:33:00;;;;;;;0.65;0.47;;;;;;;13.20;100.00;99791.44;4954787;28;20515;-90
2023/06/15 02:35:27;;;;;;;0.32;0.32;;;;;;;13.08;100.00;99783.97;4954633;28;20025;-90
2023/06/15 02:37:53;;;;;;;1.15;0.95;;;;;;;13.12;100.00;99783.84;4977230;28;20042;-89
2023/06/15 02:40:19;;;;;;;0.55;0.55;;;;;;;12.95;100.00;99781.28;4974290;28;20034;-90
2023/06/15 02:42:45;;;;;;;0.55;0.55;;;;;;;12.89;100.00;99794.28;4957674;28;20038;-93
2023/06/15 02:45:11;;;;;;;0.35;0.32;;;;;;;12.79;100.00;99778.75;4995532;28;20044;-93
2023/06/15 02:47:38;;;;;;;1.13;1.08;;;;;;;12.77;100.00;99780.47;4968481;28;20108;-94
2023/06/15 02:50:05;;;;;;;0.57;0.57;;;;;;;12.80;100.00;99785.88;4970635;28;20034;-93
2023/06/15 02:52:36;;;;;;;0.60;0.60;;;;;;;12.76;100.00;99785.25;4943726;28;20566;-93
2023/06/15 02:55:05;;;;;;;0.77;0.77;;;;;;;12.71;100.00;99788.63;4961551;28;20134;-92
2023/06/15 02:57:31;;;;;;;1.70;0.75;;;;;;;12.51;100.00;99777.09;4940656;28;20077;-94
2023/06/15 03:00:17;;;;;;;0.43;0.40;;;;;;;12.57;100.00;99789.19;4979587;28;20057;-92
2023/06/15 03:02:52;;;;;;;2.08;1.00;;;;;;;12.58;100.00;99790.72;4983428;28;20053;-93
2023/06/15 03:05:19;;;;;;;0.35;0.30;;;;;;;12.49;100.00;99771.22;4969104;28;20046;-93
2023/06/15 03:07:52;;;;;;;8.57;0.70;;;;;;;12.49;100.00;99772.00;4979485;28;20041;-93
2023/06/15 03:10:38;;;;;;;0.22;0.22;;;;;;;12.72;100.00;99784.63;4974091;28;20034;-94
2023/06/15 03:13:04;;;;;;;1.45;0.77;;;;;;;12.72;100.00;99772.69;4972276;28;20040;-93
2023/06/15 03:15:30;;;;;;;0.20;0.20;;;;;;;12.77;100.00;99770.09;4970742;28;20025;-93
2023/06/15 03:17:56;;;;;;;0.60;0.60;;;;;;;12.91;100.00;99786.22;4973787;28;20093;-93
2023/06/15 03:20:25;;;;;;;0.30;0.30;;;;;;;12.81;100.00;99758.81;4976086;28;20402;-93
2023/06/15 03:22:53;;;;;;;4.75;0.85;;;;;;;12.73;100.00;99763.91;4970937;28;20124;-94
2023/06/15 03:25:20;;;;;;;0.77;0.77;;;;;;;12.70;100.00;99775.94;4949273;28;20045;-92
2023/06/15 03:27:49;;;;;;;0.80;0.60;;;;;;;12.74;100.00;99807.19;4976558;28;20121;-93
2023/06/15 03:30:16;;;;;;;0.30;0.30;;;;;;;12.54;100.00;99779.72;4968309;28;20026;-94
2023/06/15 03:32:42;;;;;;;3.90;1.15;;;;;;;12.62;100.00;99785.78;4950944;28;20026;-93
2023/06/15 03:35:08;;;;;;;0.20;0.20;;;;;;;12.40;100.00;99748.91;4977740;28;20045;-93
2023/06/15 03:37:36;;;;;;;1.27;1.17;;;;;;;12.53;100.00;99766.28;4960478;28;20377;-92
2023/06/15 03:40:04;;;;;;;1.02;0.93;;;;;;;12.31;100.00;99754.44;4964379;28;20098;-93
2023/06/15 03:42:30;;;;;;;1.65;0.65;;;;;;;12.39;100.00;99773.16;4985796;28;20127;-94
2023/06/15 03:44:56;;;;;;;0.52;0.45;;;;;;;12.52;100.00;99770.31;4980526;28;20088;-92
2023/06/15 03:47:21;;;;;;;0.57;0.57;;;;;;;12.50;100.00;99751.28;4966315;28;20045;-94
2023/06/15 03:49:47;;;;;;;1.20;1.10;;;;;;;12.67;100.00;99756.59;4986030;28;20033;-93
2023/06/15 03:52:13;;;;;;;0.40;0.40;;;;;;;13.11;100.00;99804.56;4965412;28;20488;-94
2023/06/15 03:54:39;;;;;;;0.70;0.65;;;;;;;12.93;100.00;99777.44;4985705;28;20036;-93
2023/06/15 03:57:05;;;;;;;0.40;0.35;;;;;;;13.23;100.00;99812.03;4955042;28;20094;-96
2023/06/15 03:59:31;;;;;;;0.50;0.50;;;;;;;13.08;100.00;99778.38;4965607;28;20042;-95
2023/06/15 04:01:56;;;;;;;0.40;0.40;;;;;;;13.05;100.00;99774.53;4973392;28;20098;-94
2023/06/15 04:04:22;;;;;;;1.17;1.08;;;;;;;13.03;100.00;99765.06;4963570;28;20042;-94
2023/06/15 04:06:47;;;;;;;0.47;0.47;;;;;;;13.27;100.00;99802.28;4970682;28;20041;-94
2023/06/15 04:09:15;;;;;;;2.03;1.38;;;;;;;13.38;100.00;99804.66;4981415;28;20034;-93
2023/06/15 04:11:41;;;;;;;1.17;0.90;;;;;;;13.18;100.00;99749.38;4957381;28;20034;-94
2023/06/15 04:14:07;;;;;;;0.52;0.52;;;;;;;13.25;100.00;99748.28;4957060;28;20038;-94
2023/06/15 04:16:33;;;;;;;0.65;0.65;;;;;;;13.55;100.00;99791.94;4971529;28;20032;-96
2023/06/15 04:18:59;;;;;;;0.98;0.98;;;;;;;13.66;100.00;99789.50;4955276;28;20058;-95
2023/06/15 04:21:31;;;;;;;1.67;0.35;;;;;;;13.61;100.00;99772.63;4972829;28;20031;-95
2023/06/15 04:24:00;;;;;;;0.63;0.63;;;;;;;13.62;100.00;99765.81;4962807;28;20043;-95
2023/06/15 04:26:26;;;;;;;2.20;1.13;;;;;;;13.82;100.00;99785.63;4945436;28;20034;-94
2023/06/15 04:28:52;;;;;;;0.63;0.63;;;;;;;14.08;100.00;99825.09;4970888;28;20030;-91
2023/06/15 04:31:21;;;;;;;1.58;0.80;;;;;;;14.12;100.00;99809.75;4953466;28;20061;-90
2023/06/15 04:33:47;;;;;;;1.10;1.00;;;;;;;14.11;100.00;99824.19;4953739;28;20038;-90
2023/06/15 04:36:13;;;;;;;1.25;0.77;;;;;;;14.12;100.00;99820.91;4954864;28;20045;-89
2023/06/15 04:38:49;;;;;;;1.08;0.98;;;;;;;14.11;100.00;99818.63;4985987;28;20227;-90
2023/06/15 04:41:22;;;;;;;1.33;0.73;;;;;;;14.20;100.00;99821.38;4972066;28;20117;-90
2023/06/15 04:43:49;;;;;;;0.20;0.20;;;;;;;14.26;100.00;99833.47;4970557;28;20472;-90
2023/06/15 04:46:16;;;;;;;0.60;0.60;;;;;;;14.26;100.00;99819.53;4973050;28;20044;-89
2023/06/15 04:48:44;;;;;;;1.35;1.25;;;;;;;14.20;100.00;99804.63;4951800;28;20039;-91
2023/06/15 04:51:11;;;;;;;0.52;0.52;;;;;;;14.30;100.00;99825.72;4955571;28;20033;-90
2023/06/15 04:53:39;;;;;;;0.47;0.47;;;;;;;14.42;100.00;99833.94;4982380;28;20117;-91
2023/06/15 04:56:04;;;;;;;0.30;0.30;;;;;;;14.49;100.00;99830.03;4956525;28;20057;-90
2023/06/15 04:58:30;;;;;;;0.38;0.35;;;;;;;14.55;100.00;99832.97;4996553;28;20360;-91
2023/06/15 05:00:57;;;;;;;0.75;0.65;;;;;;;14.43;100.00;99815.19;4974547;28;20491;-90
2023/06/15 05:03:23;;;;;;;0.20;0.20;;;;;;;14.56;100.00;99815.75;4959324;28;20046;-91
2023/06/15 05:05:48;;;;;;;0.65;0.65;;;;;;;14.64;100.00;99822.53;4974604;28;20799;-89
2023/06/15 05:08:15;;;;;;;0.52;0.52;;;;;;;14.67;100.00;99804.09;4989513;28;20117;-89
2023/06/15 05:10:41;;;;;;;1.58;0.90;;;;;;;14.87;100.00;99819.06;4993698;28;20030;-90
2023/06/15 05:13:07;;;;;;;0.55;0.55;;;;;;;14.96;100.00;99803.53;4990507;28;20603;-90
2023/06/15 05:15:35;;;;;;;0.60;0.60;;;;;;;15.10;100.00;99809.19;4973783;28;20041;-90
2023/06/15 05:18:01;;;;;;;0.57;0.57;;;;;;;15.29;100.00;99832.19;4969178;28;20410;-90
2023/06/15 05:20:26;;;;;;;0.30;0.30;;;;;;;15.55;100.00;99843.75;4979001;28;20488;-89
2023/06/15 05:22:52;;;;;;;1.42;1.05;;;;;;;15.39;100.00;99808.56;4978264;28;20034;-89
2023/06/15 05:25:19;;;;;;;0.30;0.20;;;;;;;15.78;100.00;99857.72;4971039;28;20149;-89
2023/06/15 05:27:45;;;;;;;0.25;0.25;;;;;;;15.62;100.00;99827.38;4973406;28;20033;-91
2023/06/15 05:30:12;;;;;;;2.67;0.88;;;;;;;15.65;100.00;99831.25;4969351;28;20492;-90
2023/06/15 05:32:39;;;;;;;1.02;0.98;;;;;;;15.83;100.00;99845.09;4967076;28;20148;-91
2023/06/15 05:35:07;;;;;;;0.60;0.50;;;;;;;15.98;100.00;99859.88;4948109;28;20120;-90
2023/06/15 05:37:34;;;;;;;1.23;1.13;;;;;;;15.96;100.00;99853.25;4991626;28;20038;-91
2023/06/15 05:40:01;;;;;;;2.63;2.03;;;;;;;16.02;100.00;99860.47;4976164;28;20148;-91
2023/06/15 05:42:28;;;;;;;0.40;0.40;;;;;;;15.82;100.00;99830.34;4959812;28;20042;-90
2023/06/15 05:44:55;;;;;;;0.43;0.43;;;;;;;16.14;100.00;99870.63;4945405;28;20037;-91
2023/06/15 05:47:21;;;;;;;2.78;0.95;;;;;;;16.17;100.00;99852.13;4976656;28;20352;-91
2023/06/15 05:49:47;;;;;;;9.02;3.25;;;;;;;16.30;100.00;99835.81;4977241;28;20458;-90
2023/06/15 05:52:14;;;;;;;2.40;1.85;;;;;;;16.53;100.00;99831.41;4999634;28;20038;-91
2023/06/15 05:54:45;;;;;;;1.98;1.25;;;;;;;16.86;100.00;99850.84;4973205;28;20080;-90
2023/06/15 05:57:12;;;;;;;0.70;0.70;;;;;;;17.29;100.00;99878.00;4957732;28;20035;-90
2023/06/15 05:59:38;;;;;;;1.05;0.77;;;;;;;17.39;100.00;99857.00;4973055;28;20030;-90
2023/06/15 06:02:04;;;;;;;0.98;0.57;;;;;;;17.65;100.00;99846.69;4973260;28;20562;-90
2023/06/15 06:04:33;;;;;;;1.25;0.47;;;;;;;18.05;100.00;99884.44;4973587;28;20043;-90
2023/06/15 06:06:59;;;;;;;0.85;0.85;;;;;;;18.16;100.00;99874.09;4970871;28;20322;-90
2023/06/15 06:09:24;;;;;;;0.55;0.47;;;;;;;18.44;100.00;99873.66;4970396;28;20074;-90
2023/06/15 06:11:50;;;;;;;0.57;0.38;;;;;;;18.56;100.00;99883.75;4979439;28;20102;-90
2023/06/15 06:14:17;;;;;;;2.90;1.20;;;;;;;18.52;100.00;99855.13;4980856;28;20131;-91
2023/06/15 06:16:43;;;;;;;0.52;0.43;;;;;;;18.79;100.00;99890.34;4967574;28;20046;-90
2023/06/15 06:19:09;;;;;;;0.45;0.30;;;;;;;18.73;100.00;99864.22;4976336;28;20070;-90
2023/06/15 06:21:34;;;;;;;1.33;0.60;;;;;;;18.86;100.00;99875.84;4964144;28;20061;-90
2023/06/15 06:24:00;;;;;;;1.70;0.70;;;;;;;19.12;100.00;99867.38;4972391;28;20043;-90
2023/06/15 06:26:26;;;;;;;2.55;0.80;;;;;;;19.50;100.00;99907.03;4973348;28;20065;-90
2023/06/15 06:28:52;;;;;;;0.30;0.30;;;;;;;19.38;100.00;99871.66;4956645;28;20037;-91
2023/06/15 06:31:18;;;;;;;2.00;1.05;;;;;;;19.42;100.00;99868.59;4998642;28;20053;-90
2023/06/15 06:33:43;;;;;;;0.63;0.52;;;;;;;19.83;100.00;99886.78;4969128;28;20442;-90
2023/06/15 06:36:09;;;;;;;0.82;0.80;;;;;;;20.21;100.00;99898.72;4979584;28;20043;-90
2023/06/15 06:38:35;;;;;;;0.88;0.68;;;;;;;20.27;100.00;99896.66;4989712;28;20112;-90
2023/06/15 06:41:01;;;;;;;1.73;1.35;;;;;;;20.50;100.00;99908.81;4990558;28;20438;-90
2023/06/15 06:43:26;;;;;;;1.30;1.17;;;;;;;20.43;100.00;99884.72;4988613;28;20044;-90
2023/06/15 06:45:52;;;;;;;0.50;0.50;;;;;;;20.38;100.00;99888.31;4973831;28;20049;-89
2023/06/15 06:48:17;;;;;;;1.08;0.98;;;;;;;20.46;100.00;99881.63;4990121;28;20038;-89
2023/06/15 06:50:43;;;;;;;0.65;0.52;;;;;;;20.55;100.00;99905.22;4972771;28;20372;-90
2023/06/15 06:53:09;;;;;;;0.75;0.75;;;;;;;20.38;100.00;99891.88;4990090;28;20064;-89
2023/06/15 06:55:36;;;;;;;0.60;0.43;;;;;;;20.42;100.00;99883.94;4974601;28;20053;-92
2023/06/15 06:58:01;;;;;;;0.30;0.30;;;;;;;20.52;100.00;99864.75;4972966;28;20326;-93
2023/06/15 07:00:28;;;;;;;0.30;0.30;;;;;;;20.67;100.00;99878.59;4958341;28;20038;-93
2023/06/15 07:02:54;;;;;;;0.68;0.52;;;;;;;20.55;100.00;99891.91;4957508;28;20653;-92
2023/06/15 07:05:20;;;;;;;0.35;0.35;;;;;;;20.79;100.00;99875.28;4984429;28;20449;-92
2023/06/15 07:07:45;;;;;;;1.05;0.65;;;;;;;21.00;92.70;99889.91;4958436;28;20046;-95
2023/06/15 07:10:11;;;;;;;1.45;1.15;;;;;;;21.12;96.27;99857.63;4973635;28;20038;-93
2023/06/15 07:12:37;;;;;;;1.20;1.00;;;;;;;21.43;90.43;99858.63;4974072;28;20030;-93
2023/06/15 07:15:02;;;;;;;1.13;0.63;;;;;;;21.81;86.10;99894.44;4954700;28;20045;-94
2023/06/15 07:17:28;;;;;;;0.70;0.70;;;;;;;21.80;88.33;99887.25;4963332;28;20030;-93
2023/06/15 07:19:54;;;;;;;0.65;0.65;;;;;;;21.72;89.05;99847.50;4958283;28;20053;-93
2023/06/15 07:22:20;;;;;;;1.45;0.55;;;;;;;21.91;88.25;99864.66;4990839;28;20547;-95
2023/06/15 07:24:46;;;;;;;0.65;0.65;;;;;;;22.03;80.17;99865.41;4973638;28;20050;-93
2023/06/15 07:27:11;;;;;;;0.77;0.77;;;;;;;22.46;74.15;99896.75;4973430;28;20029;-93
2023/06/15 07:29:37;;;;;;;0.90;0.60;;;;;;;22.77;66.39;99887.84;4974032;28;20092;-93
2023/06/15 07:32:03;;;;;;;2.55;1.25;;;;;;;22.96;63.19;99880.25;4973341;28;20034;-93
2023/06/15 07:34:28;;;;;;;0.93;0.93;;;;;;;23.02;57.09;99872.47;4973430;28;20034;-93
2023/06/15 07:36:54;;;;;;;0.85;0.77;;;;;;;23.07;55.68;99883.00;4973689;28;20030;-93
2023/06/15 07:39:19;;;;;;;0.43;0.43;;;;;;;23.02;55.24;99866.81;4992446;28;20041;-92
2023/06/15 07:41:45;;;;;;;1.27;0.90;;;;;;;23.05;60.12;99899.72;4950600;28;20452;-93
2023/06/15 07:44:12;;;;;;;2.17;0.82;;;;;;;23.21;61.58;99876.16;4956930;28;20042;-93
2023/06/15 07:46:41;;;;;;;3.13;1.13;;;;;;;23.59;55.03;99888.44;4956865;28;20030;-93
2023/06/15 07:49:07;;;;;;;1.08;0.98;;;;;;;23.67;48.45;99863.91;4957021;28;20038;-93
2023/06/15 07:51:36;;;;;;;1.00;1.00;;;;;;;23.97;49.36;99877.97;4963457;28;20570;-89
2023/06/15 07:54:01;;;;;;;0.35;0.35;;;;;;;23.88;46.32;99854.91;4968817;28;20101;-90
2023/06/15 07:56:27;;;;;;;0.73;0.73;;;;;;;24.23;45.03;99871.72;4987628;28;20074;-89
2023/06/15 07:58:53;;;;;;;0.45;0.32;;;;;;;24.07;43.95;99853.63;4988548;28;20045;-90
2023/06/15 08:01:18;;;;;;;0.25;0.25;;;;;;;24.17;44.27;99868.22;4981103;28;20030;-89
2023/06/15 08:03:44;;;;;;;1.15;0.75;;;;;;;24.54;44.64;99884.47;4957104;28;20353;-91
2023/06/15 08:06:10;;;;;;;0.65;0.65;;;;;;;24.66;42.45;99863.16;4989103;28;20058;-89
2023/06/15 08:08:36;;;;;;;0.98;0.88;;;;;;;24.75;41.56;99876.91;4987700;28;20500;-91
2023/06/15 08:11:02;;;;;;;0.22;0.22;;;;;;;24.94;42.17;99872.00;4968302;28;20038;-88
2023/06/15 08:13:28;;;;;;;2.03;0.75;;;;;;;24.90;42.01;99863.06;4968157;28;20132;-89
2023/06/15 08:15:53;;;;;;;1.13;0.75;;;;;;;25.19;40.98;99894.56;4971198;28;20607;-90
2023/06/15 08:18:19;;;;;;;1.38;1.27;;;;;;;24.85;40.51;99863.91;4970195;28;20050;-90
2023/06/15 08:20:45;;;;;;;1.17;0.50;;;;;;;24.93;40.91;99873.31;4989322;28;20070;-90
2023/06/15 08:23:11;;;;;;;0.68;0.63;;;;;;;25.01;41.07;99865.69;4988883;28;20084;-89
2023/06/15 08:25:37;;;;;;;0.90;0.90;;;;;;;25.56;41.91;99890.84;4987791;28;20026;-89
2023/06/15 08:28:02;;;;;;;0.95;0.63;;;;;;;25.69;41.41;99888.75;4988249;28;20054;-89
2023/06/15 08:30:28;;;;;;;0.55;0.55;;;;;;;25.82;41.10;99885.94;4971222;28;20127;-90
2023/06/15 08:32:54;;;;;;;2.33;1.02;;;;;;;25.81;41.02;99867.34;4954403;28;20034;-89
2023/06/15 08:35:20;;;;;;;0.70;0.70;;;;;;;25.73;39.04;99857.97;4971367;28;20519;-89
2023/06/15 08:37:45;;;;;;;0.30;0.30;;;;;;;25.78;40.34;99885.50;4954818;28;20026;-89
2023/06/15 08:40:11;;;;;;;0.30;0.30;;;;;;;25.90;40.36;99875.44;4955388;28;20500;-90
2023/06/15 08:42:38;;;;;;;0.88;0.65;;;;;;;26.12;39.74;99884.81;4969620;28;20097;-89
2023/06/15 08:45:05;;;;;;;0.60;0.60;;;;;;;25.87;39.27;99864.41;4939183;28;20038;-89
2023/06/15 08:47:33;;;;;;;1.58;0.70;;;;;;;26.08;39.17;99858.81;4967214;28;20036;-92
2023/06/15 08:50:00;;;;;;;0.68;0.45;;;;;;;26.31;39.00;99885.47;4970747;28;20082;-89
2023/06/15 08:52:28;;;;;;;2.50;1.27;;;;;;;26.40;38.51;99882.19;4952068;28;20058;-89
2023/06/15 08:54:53;;;;;;;0.75;0.75;;;;;;;26.48;38.09;99874.50;4978453;28;20495;-88
2023/06/15 08:57:20;;;;;;;0.35;0.35;;;;;;;26.49;38.07;99855.34;4970597;28;20034;-88
2023/06/15 08:59:46;;;;;;;0.52;0.40;;;;;;;26.48;37.88;99859.50;4954696;28;20172;-89
2023/06/15 09:02:21;;;;;;;0.50;0.50;;;;;;;26.58;36.88;99869.84;4987986;28;20381;-93
2023/06/15 09:04:49;;;;;;;0.40;0.40;;;;;;;26.66;38.07;99870.69;4971547;28;20455;-94
2023/06/15 09:07:15;;;;;;;0.75;0.60;;;;;;;26.41;36.88;99872.31;4956345;28;20042;-93
2023/06/15 09:10:10;;;;;;;0.90;0.90;;;;;;;26.44;36.82;99868.38;4968363;28;20041;-94
2023/06/15 09:12:41;;;;;;;1.02;0.55;;;;;;;26.56;37.47;99866.81;4973041;28;20045;-93
2023/06/15 09:15:07;;;;;;;1.33;0.88;;;;;;;26.70;36.25;99841.91;4953987;28;20035;-92
2023/06/15 09:17:36;;;;;;;1.20;0.65;;;;;;;26.69;37.02;99841.13;4954621;28;20548;-92
2023/06/15 09:20:02;;;;;;;0.88;0.88;;;;;;;26.85;37.34;99842.09;4973954;28;20037;-94
2023/06/15 09:22:29;;;;;;;0.55;0.52;;;;;;;26.62;36.43;99819.06;4974401;28;20038;-93
2023/06/15 09:24:55;;;;;;;1.08;0.98;;;;;;;26.45;36.96;99835.75;4984155;28;20038;-92
2023/06/15 09:27:21;;;;;;;0.47;0.47;;;;;;;26.59;36.61;99840.09;4972138;28;20038;-95
2023/06/15 09:30:07;;;;;;;1.10;1.02;;;;;;;26.61;36.28;99837.44;4961568;28;20406;-94
2023/06/15 09:32:33;;;;;;;0.40;0.40;;;;;;;26.45;36.74;99841.44;4988585;28;20042;-94
2023/06/15 09:34:59;;;;;;;2.13;1.30;;;;;;;26.41;37.91;99824.72;4979603;28;20053;-94
2023/06/15 09:37:25;;;;;;;1.83;1.27;;;;;;;26.87;36.96;99845.91;4974493;28;20038;-94
2023/06/15 09:39:52;;;;;;;0.30;0.30;;;;;;;26.98;36.83;99821.31;4959640;28;20480;-94
2023/06/15 09:42:18;;;;;;;0.93;0.80;;;;;;;27.07;36.62;99830.13;4992524;28;20086;-93
2023/06/15 09:44:43;;;;;;;1.83;1.73;;;;;;;27.08;36.42;99842.28;4977760;28;20061;-93
2023/06/15 09:47:15;;;;;;;0.93;0.93;;;;;;;27.41;36.79;99846.34;4979137;28;20502;-94
2023/06/15 09:49:44;;;;;;;0.50;0.50;;;;;;;27.67;36.40;99841.22;4988519;28;20045;-95
2023/06/15 09:52:13;;;;;;;1.48;1.38;;;;;;;27.43;35.35;99838.00;4959469;28;20511;-94
2023/06/15 09:54:39;;;;;;;0.90;0.90;;;;;;;27.44;36.54;99840.28;4974942;28;20077;-95
2023/06/15 09:57:06;;;;;;;0.63;0.47;;;;;;;27.36;36.54;99842.31;4975486;28;20066;-93
2023/06/15 09:59:32;;;;;;;1.02;0.93;;;;;;;27.19;36.02;99850.53;4960789;28;20045;-94
2023/06/15 10:01:59;;;;;;;1.00;0.80;;;;;;;26.95;36.29;99828.13;4974023;28;20039;-94
2023/06/15 10:04:30;;;;;;;1.27;1.10;;;;;;;27.05;37.34;99814.94;4984446;28;20057;-94
2023/06/15 10:07:01;;;;;;;0.57;0.50;;;;;;;27.23;35.86;99819.63;4964713;28;20624;-94
2023/06/15 10:09:29;;;;;;;0.43;0.43;;;;;;;26.97;35.38;99819.81;4974742;28;20049;-95
2023/06/15 10:12:05;;;;;;;0.80;0.60;;;;;;;26.94;34.79;99820.91;4992315;28;20077;-94
2023/06/15 10:15:07;;;;;;;0.55;0.55;;;;;;;27.40;35.44;99839.88;4980821;28;20096;-90
2023/06/15 10:17:34;;;;;;;0.52;0.52;;;;;;;27.50;34.77;99826.69;4985738;28;20077;-90
2023/06/15 10:20:07;;;;;;;0.43;0.43;;;;;;;27.65;34.66;99838.19;4973333;28;20034;-89
2023/06/15 10:22:34;;;;;;;1.17;1.08;;;;;;;27.80;34.15;99849.66;4990835;28;20058;-88
2023/06/15 10:25:00;;;;;;;0.40;0.40;;;;;;;27.96;35.25;99827.69;4970027;28;20043;-93
2023/06/15 10:27:26;;;;;;;1.55;1.15;;;;;;;28.28;33.65;99847.25;4969051;28;20266;-92
2023/06/15 10:30:01;;;;;;;1.02;0.80;;;;;;;28.10;32.27;99819.81;4982987;28;20484;-92
2023/06/15 10:32:31;;;;;;;1.67;0.85;;;;;;;28.39;32.76;99841.19;4956768;28;20054;-96
2023/06/15 10:35:09;;;;;;;0.47;0.47;;;;;;;28.51;32.45;99819.53;4967491;28;20038;-94
2023/06/15 10:37:48;;;;;;;0.35;0.35;;;;;;;28.49;32.33;99833.63;4969897;28;20051;-94
2023/06/15 10:40:22;;;;;;;0.30;0.30;;;;;;;28.19;31.85;99844.94;4981838;28;20121;-94
2023/06/15 10:42:49;;;;;;;1.17;0.60;;;;;;;28.09;32.22;99846.81;4974968;28;20573;-92
2023/06/15 10:45:28;;;;;;;0.70;0.70;;;;;;;28.13;32.77;99855.75;4970769;28;20424;-94
2023/06/15 10:47:56;;;;;;;0.85;0.82;;;;;;;28.01;33.15;99837.41;4986342;28;20104;-94
2023/06/15 10:50:22;;;;;;;0.80;0.77;;;;;;;27.98;31.95;99827.16;4930881;28;20035;-94
2023/06/15 10:52:50;;;;;;;0.50;0.50;;;;;;;27.96;32.02;99810.59;4980069;28;20044;-93
2023/06/15 10:55:15;;;;;;;1.23;0.40;;;;;;;28.12;33.21;99825.69;4980073;28;20049;-94
2023/06/15 10:57:41;;;;;;;0.63;0.63;;;;;;;28.25;32.50;99800.66;4997017;28;20041;-94
2023/06/15 11:00:10;;;;;;;0.55;0.55;;;;;;;28.38;31.88;99827.50;4959886;28;20034;-94
2023/06/15 11:02:35;;;;;;;1.92;0.73;;;;;;;28.69;31.79;99847.03;4962025;28;20030;-94
2023/06/15 11:05:02;;;;;;;0.82;0.65;;;;;;;28.63;31.52;99819.97;4992311;28;20536;-95
2023/06/15 11:07:29;;;;;;;2.15;0.63;;;;;;;28.79;32.34;99837.91;4991557;28;20492;-93
2023/06/15 11:10:00;;;;;;;1.00;0.95;;;;;;;28.32;32.07;99819.13;4977811;28;20052;-94
2023/06/15 11:12:35;;;;;;;1.08;0.73;;;;;;;28.91;32.14;99827.63;4956312;28;20049;-94
2023/06/15 11:15:02;;;;;;;0.70;0.57;;;;;;;28.86;29.14;99848.56;4979612;28;20065;-93
2023/06/15 11:17:27;;;;;;;0.43;0.43;;;;;;;28.53;29.87;99839.72;4960511;28;20070;-93
2023/06/15 11:19:53;;;;;;;1.08;0.98;;;;;;;28.53;31.08;99836.88;4951010;28;20134;-94
2023/06/15 11:22:25;;;;;;;0.60;0.60;;;;;;;28.88;30.81;99834.47;4970531;28;20506;-95
2023/06/15 11:24:54;;;;;;;0.82;0.82;;;;;;;28.84;30.33;99817.72;4971091;28;20156;-94
2023/06/15 11:27:22;;;;;;;1.10;0.90;;;;;;;28.82;30.69;99831.06;4954755;28;20058;-94
2023/06/15 11:29:55;;;;;;;0.50;0.50;;;;;;;29.21;29.72;99839.06;4985547;28;20117;-94